createdAt,value
2019-05-12T00:00:21.860Z,78.15
2019-05-12T00:02:51.214Z,78.27
2019-05-12T00:05:20.556Z,78.39
2019-05-12T00:07:49.936Z,78.46
2019-05-12T00:10:19.442Z,78.64
2019-05-12T00:12:48.824Z,78.71
2019-05-12T00:15:19.295Z,78.85
2019-05-12T00:17:48.944Z,78.92
2019-05-12T00:20:18.599Z,78.98
2019-05-12T00:22:49.567Z,79.06
2019-05-12T00:25:19.130Z,79.14
2019-05-12T00:27:48.975Z,79.26
2019-05-12T00:30:32.157Z,79.39
2019-05-12T00:33:05.401Z,79.54
2019-05-12T00:35:34.772Z,79.64
2019-05-12T00:38:04.153Z,79.78
2019-05-12T00:40:33.601Z,79.92
2019-05-12T00:43:02.950Z,80.15
2019-05-12T00:45:32.278Z,80.20
2019-05-12T00:48:02.321Z,80.29
2019-05-12T00:50:31.930Z,80.36
2019-05-12T00:53:01.391Z,80.50
2019-05-12T00:55:31.372Z,80.42
2019-05-12T00:58:00.759Z,80.42
2019-05-12T01:00:30.182Z,80.48
2019-05-12T01:02:59.542Z,80.55
2019-05-12T01:05:29.506Z,80.64
2019-05-12T01:07:58.929Z,80.75
2019-05-12T01:10:28.852Z,80.86
2019-05-12T01:12:58.540Z,80.96
2019-05-12T01:15:28.787Z,81.05
2019-05-12T01:17:58.769Z,81.21
2019-05-12T01:20:28.578Z,81.40
2019-05-12T01:22:58.315Z,81.56
2019-05-12T01:25:29.021Z,81.74
2019-05-12T01:27:59.693Z,81.79
2019-05-12T01:30:29.032Z,81.94
2019-05-12T01:32:58.605Z,82.09
2019-05-12T01:35:28.462Z,82.15
2019-05-12T01:37:58.794Z,82.19
2019-05-12T01:40:29.940Z,82.28
2019-05-12T01:42:59.284Z,82.43
2019-05-12T01:45:29.109Z,82.50
2019-05-12T01:47:59.408Z,82.65
2019-05-12T01:50:28.803Z,82.73
2019-05-12T01:52:59.001Z,82.77
2019-05-12T01:55:28.528Z,82.86
2019-05-12T01:57:58.121Z,82.90
2019-05-12T02:00:28.522Z,82.93
2019-05-12T02:02:58.701Z,83.05
2019-05-12T02:05:28.394Z,83.15
2019-05-12T02:07:58.941Z,83.33
2019-05-12T02:10:28.923Z,83.48
2019-05-12T02:12:59.407Z,83.70
2019-05-12T02:15:29.000Z,83.84
2019-05-12T02:17:59.103Z,83.99
2019-05-12T02:20:28.959Z,84.20
2019-05-12T02:22:58.676Z,84.43
2019-05-12T02:25:28.860Z,84.58
2019-05-12T02:27:58.726Z,84.65
2019-05-12T02:30:30.573Z,84.79
2019-05-12T02:32:59.858Z,84.88
2019-05-12T02:35:29.311Z,85.00
2019-05-12T02:37:58.686Z,84.99
2019-05-12T02:40:28.151Z,84.85
2019-05-12T02:42:57.497Z,84.71
2019-05-12T02:45:27.829Z,84.54
2019-05-12T02:47:57.180Z,84.27
2019-05-12T02:50:36.190Z,84.21
2019-05-12T02:53:06.502Z,84.14
2019-05-12T02:55:36.337Z,84.00
2019-05-12T02:58:06.423Z,83.93
2019-05-12T03:00:36.970Z,83.81
2019-05-12T03:03:08.931Z,83.65
2019-05-12T03:05:40.079Z,83.56
2019-05-12T03:08:09.473Z,83.49
2019-05-12T03:10:38.906Z,83.39
2019-05-12T03:13:08.219Z,83.32
2019-05-12T03:15:37.911Z,83.15
2019-05-12T03:18:07.497Z,83.05
2019-05-12T03:20:36.916Z,82.96
2019-05-12T03:23:07.020Z,82.86
2019-05-12T03:25:37.229Z,82.77
2019-05-12T03:28:08.742Z,82.67
2019-05-12T03:30:40.519Z,82.54
2019-05-12T03:33:11.417Z,82.48
2019-05-12T03:35:46.088Z,82.47
2019-05-12T03:38:14.861Z,82.52
2019-05-12T03:40:45.094Z,82.55
2019-05-12T03:43:14.750Z,82.33
2019-05-12T03:45:45.178Z,82.16
2019-05-12T03:48:15.842Z,82.09
2019-05-12T03:50:46.152Z,82.03
2019-05-12T03:53:16.070Z,82.04
2019-05-12T03:55:46.814Z,81.82
2019-05-12T03:58:17.706Z,81.78
2019-05-12T04:00:47.067Z,81.83
2019-05-12T04:03:16.442Z,81.73
2019-05-12T04:05:45.879Z,81.60
2019-05-12T04:08:15.926Z,81.48
2019-05-12T04:10:45.889Z,81.55
2019-05-12T04:13:15.613Z,81.59
2019-05-12T04:15:45.761Z,81.49
2019-05-12T04:18:16.729Z,81.37
2019-05-12T04:20:46.310Z,81.33
2019-05-12T04:23:15.894Z,81.30
2019-05-12T04:25:52.280Z,81.37
2019-05-12T04:28:16.412Z,81.33
2019-05-12T04:30:45.761Z,81.20
2019-05-12T04:33:15.928Z,81.14
2019-05-12T04:35:45.562Z,80.88
2019-05-12T04:38:15.394Z,80.85
2019-05-12T04:40:45.406Z,81.00
2019-05-12T04:43:15.095Z,80.83
2019-05-12T04:45:45.257Z,80.70
2019-05-12T04:48:18.200Z,80.59
2019-05-12T04:50:45.948Z,80.53
2019-05-12T04:53:15.294Z,80.44
2019-05-12T04:55:44.980Z,80.51
2019-05-12T04:58:15.727Z,80.52
2019-05-12T05:00:45.536Z,80.43
2019-05-12T05:03:15.876Z,80.23
2019-05-12T05:05:45.266Z,79.78
2019-05-12T05:08:19.233Z,79.75
2019-05-12T05:10:45.696Z,79.86
2019-05-12T05:13:15.366Z,79.65
2019-05-12T05:15:45.049Z,79.37
2019-05-12T05:18:14.434Z,78.97
2019-05-12T05:20:44.055Z,78.50
2019-05-12T05:23:14.136Z,78.32
2019-05-12T05:25:43.837Z,78.15
2019-05-12T05:28:14.585Z,77.85
2019-05-12T05:30:44.399Z,77.26
2019-05-12T05:33:14.486Z,76.84
2019-05-12T05:35:45.046Z,76.54
2019-05-12T05:38:19.189Z,76.17
2019-05-12T05:40:45.745Z,75.95
2019-05-12T05:43:18.526Z,75.37
2019-05-12T05:45:46.166Z,75.12
2019-05-12T05:48:15.551Z,74.52
2019-05-12T05:50:44.903Z,74.05
2019-05-12T05:53:19.372Z,73.63
2019-05-12T05:55:45.459Z,73.39
2019-05-12T05:58:16.378Z,72.83
2019-05-12T06:00:46.704Z,71.98
2019-05-12T06:03:23.138Z,70.77
2019-05-12T06:05:47.102Z,69.17
2019-05-12T06:08:20.723Z,66.97
2019-05-12T06:10:47.539Z,66.97
2019-05-12T06:13:21.067Z,67.11
2019-05-12T06:15:47.955Z,66.76
2019-05-12T06:18:17.298Z,66.81
2019-05-12T06:20:46.674Z,66.94
2019-05-12T06:23:16.023Z,66.64
2019-05-12T06:25:50.925Z,66.33
2019-05-12T06:28:16.430Z,65.09
2019-05-12T06:30:49.462Z,65.09
2019-05-12T06:33:22.662Z,65.40
2019-05-12T06:35:48.892Z,64.68
2019-05-12T06:38:18.236Z,62.97
2019-05-12T06:40:47.607Z,60.80
2019-05-12T06:43:16.965Z,57.67
2019-05-12T06:45:46.328Z,55.71
2019-05-12T06:48:19.341Z,54.32
2019-05-12T06:50:46.743Z,53.60
2019-05-12T06:53:20.298Z,53.08
2019-05-12T06:55:47.189Z,50.79
2019-05-12T06:58:26.049Z,50.85
2019-05-12T07:00:47.637Z,50.62
2019-05-12T07:03:19.421Z,49.41
2019-05-12T07:05:48.745Z,47.03
2019-05-12T07:08:26.572Z,45.54
2019-05-12T07:10:57.788Z,44.37
2019-05-12T07:13:24.587Z,42.69
2019-05-12T07:15:54.367Z,40.12
2019-05-12T07:18:32.118Z,39.10
2019-05-12T07:20:54.687Z,39.32
2019-05-12T07:23:25.897Z,40.02
2019-05-12T07:25:55.127Z,41.10
2019-05-12T07:28:24.488Z,42.30
2019-05-12T07:30:54.562Z,43.03
2019-05-12T07:33:24.163Z,43.91
2019-05-12T07:36:01.082Z,44.76
2019-05-12T07:38:26.414Z,45.52
2019-05-12T07:41:00.733Z,46.38
2019-05-12T07:43:29.092Z,47.04
2019-05-12T07:46:02.518Z,46.85
2019-05-12T07:48:30.227Z,43.78
2019-05-12T07:51:00.785Z,40.20
2019-05-12T07:53:31.311Z,37.85
2019-05-12T07:56:01.136Z,35.78
2019-05-12T07:58:30.514Z,33.24
2019-05-12T08:01:07.694Z,31.87
2019-05-12T08:03:30.994Z,30.27
2019-05-12T08:06:01.796Z,29.16
2019-05-12T08:08:31.410Z,28.48
2019-05-12T08:11:04.205Z,27.76
2019-05-12T08:13:39.341Z,26.58
2019-05-12T08:16:03.973Z,27.84
2019-05-12T08:18:36.942Z,28.76
2019-05-12T08:21:04.390Z,30.06
2019-05-12T08:23:33.988Z,31.29
2019-05-12T08:26:11.741Z,32.95
2019-05-12T08:28:39.781Z,30.85
2019-05-12T08:31:05.419Z,32.52
2019-05-12T08:33:35.748Z,31.00
2019-05-12T08:36:11.432Z,30.57
2019-05-12T08:38:36.188Z,31.32
2019-05-12T08:41:05.579Z,32.01
2019-05-12T08:43:34.926Z,30.75
2019-05-12T08:46:09.959Z,29.37
2019-05-12T08:48:35.410Z,27.63
2019-05-12T08:51:13.581Z,27.61
2019-05-12T08:53:35.833Z,27.82
2019-05-12T08:56:12.845Z,27.14
2019-05-12T08:58:47.261Z,26.67
2019-05-12T09:01:07.360Z,27.05
2019-05-12T09:03:36.700Z,26.80
2019-05-12T09:06:09.139Z,25.71
2019-05-12T09:08:43.928Z,24.31
2019-05-12T09:11:08.934Z,23.82
2019-05-12T09:13:38.293Z,24.39
2019-05-12T09:16:09.694Z,24.56
2019-05-12T09:18:39.391Z,23.73
2019-05-12T09:21:08.754Z,23.80
2019-05-12T09:23:41.176Z,23.73
2019-05-12T09:26:09.201Z,23.16
2019-05-12T09:28:47.360Z,24.21
2019-05-12T09:31:09.614Z,25.51
2019-05-12T09:33:38.994Z,26.58
2019-05-12T09:36:11.397Z,26.85
2019-05-12T09:38:41.037Z,28.05
2019-05-12T09:41:10.452Z,29.01
2019-05-12T09:43:40.288Z,29.78
2019-05-12T09:46:10.873Z,30.91
2019-05-12T09:48:46.853Z,29.43
2019-05-12T09:51:13.289Z,28.17
2019-05-12T09:53:50.628Z,27.22
2019-05-12T09:56:13.793Z,26.09
2019-05-12T09:58:43.697Z,24.86
2019-05-12T10:01:13.942Z,24.45
2019-05-12T10:03:43.926Z,24.84
2019-05-12T10:06:17.861Z,24.61
2019-05-12T10:08:45.294Z,24.40
2019-05-12T10:11:16.523Z,23.78
2019-05-12T10:13:45.710Z,23.83
2019-05-12T10:16:15.072Z,22.41
2019-05-12T10:18:51.098Z,22.49
2019-05-12T10:21:17.513Z,22.73
2019-05-12T10:23:51.641Z,23.86
2019-05-12T10:26:18.589Z,25.70
2019-05-12T10:28:52.010Z,26.98
2019-05-12T10:31:19.075Z,28.72
2019-05-12T10:33:48.978Z,29.86
2019-05-12T10:36:19.556Z,30.68
2019-05-12T10:38:48.897Z,31.54
2019-05-12T10:41:18.287Z,33.10
2019-05-12T10:43:48.349Z,34.21
2019-05-12T10:46:26.919Z,34.85
2019-05-12T10:48:50.794Z,35.14
2019-05-12T10:51:20.181Z,34.21
2019-05-12T10:53:56.867Z,34.58
2019-05-12T10:56:20.578Z,34.23
2019-05-12T10:58:49.944Z,33.66
2019-05-12T11:01:19.293Z,33.93
2019-05-12T11:03:50.798Z,34.77
2019-05-12T11:06:19.733Z,35.34
2019-05-12T11:08:51.226Z,36.14
2019-05-12T11:11:20.337Z,37.06
2019-05-12T11:13:50.384Z,38.04
2019-05-12T11:16:25.166Z,38.62
2019-05-12T11:18:50.818Z,38.78
2019-05-12T11:21:20.212Z,38.63
2019-05-12T11:23:49.571Z,38.77
2019-05-12T11:26:18.927Z,38.71
2019-05-12T11:28:48.280Z,38.23
2019-05-12T11:31:17.706Z,37.75
2019-05-12T11:33:47.070Z,38.59
2019-05-12T11:36:16.596Z,39.05
2019-05-12T11:38:45.956Z,38.63
2019-05-12T11:41:19.769Z,38.14
2019-05-12T11:43:46.374Z,38.72
2019-05-12T11:46:15.744Z,38.65
2019-05-12T11:48:46.344Z,39.43
2019-05-12T11:51:16.162Z,38.60
2019-05-12T11:53:45.553Z,37.67
2019-05-12T11:56:14.938Z,38.01
2019-05-12T11:58:47.376Z,38.33
2019-05-12T12:01:17.027Z,38.41
2019-05-12T12:03:46.377Z,38.52
2019-05-12T12:06:15.783Z,38.73
2019-05-12T12:08:45.188Z,38.49
2019-05-12T12:11:18.169Z,38.10
2019-05-12T12:13:45.608Z,38.29
2019-05-12T12:16:14.953Z,38.97
2019-05-12T12:18:46.616Z,38.93
2019-05-12T12:21:15.375Z,38.83
2019-05-12T12:23:47.158Z,39.91
2019-05-12T12:26:30.226Z,40.45
2019-05-12T12:28:58.590Z,40.70
2019-05-12T12:31:34.691Z,40.97
2019-05-12T12:34:00.644Z,40.43
2019-05-12T12:36:30.004Z,41.42
2019-05-12T12:38:59.372Z,41.65
2019-05-12T12:41:28.765Z,41.75
2019-05-12T12:43:58.147Z,41.85
2019-05-12T12:46:28.058Z,42.51
2019-05-12T12:49:03.803Z,42.15
2019-05-12T12:51:28.477Z,41.77
2019-05-12T12:53:57.855Z,41.71
2019-05-12T12:56:30.024Z,41.22
2019-05-12T12:59:01.780Z,40.95
2019-05-12T13:01:32.566Z,40.44
2019-05-12T13:04:04.705Z,39.54
2019-05-12T13:06:31.435Z,39.62
2019-05-12T13:09:00.793Z,39.51
2019-05-12T13:11:34.821Z,39.29
2019-05-12T13:14:01.216Z,39.46
2019-05-12T13:16:30.583Z,39.89
2019-05-12T13:19:06.200Z,39.96
2019-05-12T13:21:33.618Z,39.70
2019-05-12T13:24:03.773Z,39.33
2019-05-12T13:26:33.138Z,39.03
2019-05-12T13:29:04.007Z,38.65
2019-05-12T13:31:33.443Z,38.89
2019-05-12T13:34:03.734Z,38.90
2019-05-12T13:36:35.411Z,38.88
2019-05-12T13:39:11.440Z,39.20
2019-05-12T13:41:37.810Z,39.61
2019-05-12T13:44:07.190Z,39.75
2019-05-12T13:46:36.556Z,40.26
2019-05-12T13:49:05.913Z,40.70
2019-05-12T13:51:35.259Z,41.07
2019-05-12T13:54:04.608Z,40.91
2019-05-12T13:56:35.864Z,41.12
2019-05-12T13:59:06.181Z,41.24
2019-05-12T14:01:40.393Z,41.80
2019-05-12T14:04:07.267Z,42.20
2019-05-12T14:06:37.989Z,42.22
2019-05-12T14:09:08.445Z,42.52
2019-05-12T14:11:37.793Z,42.66
2019-05-12T14:14:11.456Z,42.50
2019-05-12T14:16:44.456Z,42.35
2019-05-12T14:19:10.311Z,41.64
2019-05-12T14:21:41.096Z,41.57
2019-05-12T14:24:10.731Z,41.37
2019-05-12T14:26:47.558Z,41.08
2019-05-12T14:29:11.174Z,41.35
2019-05-12T14:31:45.354Z,41.56
2019-05-12T14:34:17.884Z,41.46
2019-05-12T14:36:43.325Z,41.63
2019-05-12T14:39:13.314Z,42.06
2019-05-12T14:41:52.891Z,42.51
2019-05-12T14:44:13.982Z,42.76
2019-05-12T14:46:46.445Z,42.79
2019-05-12T14:49:14.379Z,42.99
2019-05-12T14:51:44.424Z,42.96
2019-05-12T14:54:13.901Z,42.84
2019-05-12T14:56:44.834Z,43.35
2019-05-12T14:59:14.619Z,43.61
2019-05-12T15:01:57.351Z,43.86
2019-05-12T15:04:19.480Z,44.52
2019-05-12T15:06:46.081Z,44.97
2019-05-12T15:09:19.530Z,45.76
2019-05-12T15:11:46.468Z,46.49
2019-05-12T15:14:15.840Z,46.25
2019-05-12T15:16:45.219Z,46.46
2019-05-12T15:19:14.572Z,46.64
2019-05-12T15:21:43.943Z,46.54
2019-05-12T15:24:15.490Z,46.53
2019-05-12T15:26:44.357Z,46.41
2019-05-12T15:29:19.826Z,46.77
2019-05-12T15:31:53.122Z,46.57
2019-05-12T15:34:15.918Z,46.05
2019-05-12T15:36:51.837Z,45.62
2019-05-12T15:39:16.308Z,45.29
2019-05-12T15:41:45.656Z,45.32
2019-05-12T15:44:15.006Z,45.10
2019-05-12T15:46:46.653Z,45.24
2019-05-12T15:49:15.411Z,45.74
2019-05-12T15:51:54.147Z,46.21
2019-05-12T15:54:15.891Z,46.02
2019-05-12T15:56:45.249Z,45.99
2019-05-12T15:59:17.491Z,45.53
2019-05-12T16:01:46.652Z,45.39
2019-05-12T16:04:16.089Z,45.26
2019-05-12T16:06:53.497Z,45.20
2019-05-12T16:09:16.493Z,45.50
2019-05-12T16:11:45.824Z,45.56
2019-05-12T16:14:15.193Z,45.24
2019-05-12T16:16:46.844Z,45.21
2019-05-12T16:19:15.600Z,45.39
2019-05-12T16:21:45.649Z,45.64
2019-05-12T16:24:15.731Z,45.70
2019-05-12T16:26:51.835Z,45.70
2019-05-12T16:29:16.252Z,45.75
2019-05-12T16:31:49.856Z,45.41
2019-05-12T16:34:17.634Z,45.05
2019-05-12T16:36:51.892Z,45.17
2019-05-12T16:39:18.035Z,45.42
2019-05-12T16:41:47.393Z,44.87
2019-05-12T16:44:22.834Z,44.79
2019-05-12T16:46:47.805Z,45.32
2019-05-12T16:49:17.182Z,45.29
2019-05-12T16:51:46.532Z,44.99
2019-05-12T16:54:15.912Z,44.90
2019-05-12T16:56:45.266Z,44.65
2019-05-12T16:59:21.822Z,44.96
2019-05-12T17:01:45.700Z,45.31
2019-05-12T17:04:15.028Z,46.00
2019-05-12T17:06:47.073Z,47.01
2019-05-12T17:09:15.435Z,47.67
2019-05-12T17:11:50.080Z,48.36
2019-05-12T17:14:15.874Z,48.78
2019-05-12T17:16:46.759Z,49.12
2019-05-12T17:19:16.155Z,49.34
2019-05-12T17:21:49.432Z,49.49
2019-05-12T17:24:17.542Z,49.63
2019-05-12T17:26:46.907Z,49.31
2019-05-12T17:29:16.245Z,49.23
2019-05-12T17:31:45.604Z,49.27
2019-05-12T17:34:14.979Z,49.33
2019-05-12T17:36:44.811Z,49.56
2019-05-12T17:39:14.355Z,49.52
2019-05-12T17:41:45.681Z,49.64
2019-05-12T17:44:14.779Z,49.83
2019-05-12T17:46:44.298Z,49.89
2019-05-12T17:49:15.779Z,49.85
2019-05-12T17:51:44.635Z,50.25
2019-05-12T17:54:21.667Z,50.53
2019-05-12T17:56:45.032Z,50.78
2019-05-12T17:59:23.661Z,50.84
2019-05-12T18:01:45.467Z,50.99
2019-05-12T18:04:14.834Z,51.39
2019-05-12T18:06:44.259Z,51.67
2019-05-12T18:09:15.786Z,51.97
2019-05-12T18:11:46.133Z,51.97
2019-05-12T18:14:16.293Z,52.39
2019-05-12T18:16:45.646Z,52.44
2019-05-12T18:19:19.378Z,52.78
2019-05-12T18:21:46.048Z,52.92
2019-05-12T18:24:15.407Z,53.27
2019-05-12T18:26:48.696Z,53.47
2019-05-12T18:29:15.812Z,53.80
2019-05-12T18:31:45.193Z,54.44
2019-05-12T18:34:14.543Z,54.91
2019-05-12T18:36:43.893Z,55.22
2019-05-12T18:39:15.270Z,55.67
2019-05-12T18:41:44.379Z,55.99
2019-05-12T18:44:18.251Z,56.33
2019-05-12T18:46:46.576Z,56.52
2019-05-12T18:49:16.365Z,56.87
2019-05-12T18:51:49.112Z,57.26
2019-05-12T18:54:16.815Z,57.65
2019-05-12T18:56:46.182Z,57.98
2019-05-12T18:59:16.504Z,58.06
2019-05-12T19:01:45.911Z,58.19
2019-05-12T19:04:15.282Z,58.16
2019-05-12T19:06:44.808Z,58.25
2019-05-12T19:09:14.317Z,58.43
2019-05-12T19:11:46.596Z,58.56
2019-05-12T19:14:14.716Z,58.86
2019-05-12T19:16:44.095Z,58.92
2019-05-12T19:19:19.644Z,59.11
2019-05-12T19:21:46.923Z,59.38
2019-05-12T19:24:20.014Z,59.51
2019-05-12T19:26:46.726Z,59.66
2019-05-12T19:29:17.018Z,60.19
2019-05-12T19:31:52.409Z,60.19
2019-05-12T19:34:22.730Z,60.68
2019-05-12T19:36:50.470Z,61.26
2019-05-12T19:39:19.864Z,61.26
2019-05-12T19:41:49.227Z,61.68
2019-05-12T19:44:20.042Z,61.74
2019-05-12T19:46:49.713Z,62.06
2019-05-12T19:49:20.099Z,62.17
2019-05-12T19:51:50.245Z,62.19
2019-05-12T19:54:24.634Z,62.49
2019-05-12T19:56:50.739Z,62.55
2019-05-12T19:59:20.076Z,62.85
2019-05-12T20:01:49.415Z,63.38
2019-05-12T20:04:30.955Z,63.38
2019-05-12T20:06:49.831Z,63.32
2019-05-12T20:09:19.201Z,63.60
2019-05-12T20:11:48.579Z,63.65
2019-05-12T20:14:21.270Z,63.72
2019-05-12T20:16:49.015Z,63.72
2019-05-12T20:19:19.948Z,63.57
2019-05-12T20:21:49.426Z,63.46
2019-05-12T20:24:18.797Z,63.27
2019-05-12T20:26:48.155Z,62.83
2019-05-12T20:29:17.534Z,62.44
2019-05-12T20:31:48.829Z,62.20
2019-05-12T20:34:17.936Z,61.79
2019-05-12T20:36:47.277Z,61.49
2019-05-12T20:39:21.671Z,61.20
2019-05-12T20:41:47.684Z,60.93
2019-05-12T20:44:19.943Z,60.81
2019-05-12T20:46:48.098Z,60.42
2019-05-12T20:49:20.285Z,60.31
2019-05-12T20:51:55.202Z,60.26
2019-05-12T20:54:20.046Z,60.18
2019-05-12T20:56:53.157Z,60.29
2019-05-12T20:59:23.832Z,60.37
2019-05-12T21:01:51.721Z,60.45
2019-05-12T21:04:22.187Z,60.75
2019-05-12T21:06:54.140Z,61.08
2019-05-12T21:09:24.163Z,61.35
2019-05-12T21:11:54.686Z,61.72
2019-05-12T21:14:24.244Z,61.98
2019-05-12T21:16:53.973Z,62.23
2019-05-12T21:19:24.235Z,62.54
2019-05-12T21:21:54.466Z,62.79
2019-05-12T21:24:24.431Z,62.96
2019-05-12T21:26:54.916Z,63.36
2019-05-12T21:29:28.506Z,63.58
2019-05-12T21:31:56.357Z,63.76
2019-05-12T21:34:27.559Z,64.05
2019-05-12T21:36:58.853Z,64.34
2019-05-12T21:39:27.970Z,64.48
2019-05-12T21:41:57.366Z,64.74
2019-05-12T21:44:26.687Z,64.91
2019-05-12T21:47:03.758Z,65.11
2019-05-12T21:49:27.119Z,65.37
2019-05-12T21:52:03.053Z,65.46
2019-05-12T21:54:29.407Z,65.59
2019-05-12T21:56:58.564Z,65.62
2019-05-12T21:59:34.586Z,65.76
2019-05-12T22:01:59.125Z,65.92
2019-05-12T22:04:32.935Z,66.08
2019-05-12T22:06:59.531Z,66.29
2019-05-12T22:09:32.960Z,66.44
2019-05-12T22:12:00.038Z,66.46
2019-05-12T22:14:30.350Z,66.70
2019-05-12T22:17:02.104Z,66.59
2019-05-12T22:19:37.601Z,66.75
2019-05-12T22:22:04.351Z,66.91
2019-05-12T22:24:38.526Z,67.11
2019-05-12T22:27:05.195Z,67.38
2019-05-12T22:29:34.581Z,67.37
2019-05-12T22:32:05.031Z,67.62
2019-05-12T22:34:40.399Z,67.79
2019-05-12T22:37:05.791Z,67.89
2019-05-12T22:39:35.423Z,68.11
2019-05-12T22:42:04.768Z,68.13
2019-05-12T22:44:34.771Z,68.29
2019-05-12T22:47:13.039Z,68.31
2019-05-12T22:49:35.229Z,68.66
2019-05-12T22:52:07.010Z,68.77
2019-05-12T22:54:40.541Z,68.89
2019-05-12T22:57:06.708Z,69.07
2019-05-12T22:59:40.303Z,69.30
2019-05-12T23:02:07.129Z,69.41
2019-05-12T23:04:40.444Z,69.78
2019-05-12T23:07:07.533Z,69.82
2019-05-12T23:09:36.883Z,70.01
2019-05-12T23:12:09.777Z,70.11
2019-05-12T23:14:37.298Z,70.23
2019-05-12T23:17:07.511Z,70.36
2019-05-12T23:19:36.933Z,70.42
2019-05-12T23:22:06.279Z,70.47
2019-05-12T23:24:40.357Z,70.61
2019-05-12T23:27:08.883Z,70.52
2019-05-12T23:29:37.741Z,70.49
2019-05-12T23:32:11.755Z,70.55
2019-05-12T23:34:38.154Z,70.75
2019-05-12T23:37:07.564Z,70.89
2019-05-12T23:39:38.003Z,71.15
2019-05-12T23:42:07.989Z,71.39
2019-05-12T23:44:37.325Z,71.59
2019-05-12T23:47:06.682Z,71.55
2019-05-12T23:49:36.035Z,71.75
2019-05-12T23:52:05.465Z,71.88
2019-05-12T23:54:34.778Z,72.07
2019-05-12T23:57:05.129Z,72.18
2019-05-12T23:59:34.464Z,72.41
